الصفحة الرئيسية
METAR-TAF:

METAR-TAF

مطار :

فرشاتس, صربيا

دائرة عرض: 45-09N, خط طول: 021-19E, ارتفاع: 83 متر

مراقبة الطقس الحالي

تاريخ ووقت الإصدار 17 دقيقة قبل الساعة 06:00UTC
ريح 10 عقدة من الشرق/الجنوب الشرقي تتزايد حتى 24 عقدة
درجة الحرارة 12°درجة مئوية
الرطوبة 24%
ضغط 1032 hPa
الرؤية 10 كم أو أكثر
الغيوم لا تقل 1500 م ولا وجود لمزنة ركامية السحاب الأسود

METAR: LYVR 060600Z 12010G24KT CAVOK 12/M08 Q1032

زمن: 08:17 (06:17 UTC)

توقعات

تاريخ ووقت الإصدار 1ساعة و 17 دقيقة قبل الساعة 05:00UTC
التوقعات صالحة من06 الساعة 06 UTC إلى 07 الساعة 06 UTC
ريح 15 عقدة من الجنوب الشرقي تتزايد حتى 30 عقدة
الرؤية 10 كم أو أكثر
الغيوم لا تقل 1500 م ولا وجود لمزنة ركامية السحاب الأسود
أصبح
من 06 الساعة 16 UTC إلى 06 الساعة 18 UTC
ريح 9 عقدة من الجنوب الشرقي

TAF: LYVR 060500Z 0606/0706 14015G30KT 9999 CAVOK TX14/0612Z TN08/0705Z BECMG 0616/0618 13009KT

أرصاد الطقس والتوقعات من أكثر من 4000 مطار (تقارير الطقس للمطار METAR والتنبؤ بالطقس بالمطارTAF).

المحطات المتاحة هي النقط الصفراء والحمراء على الخريطة.

حرك المؤشر فوق النقطة لمعرفة اسم المحطة.

ثم انقر لمعرفة أرصاد وتوقعات الطقس.

لتغيير الخارطة: اضغط على الأزرار الخضراء مع رمز الصليب الأسود للتكبير. على الزر الأخضر مع شرطة للتصغير، أو على الأسهم الخضراء للخرائط المجاورة.


METAR-TAF: